METAR Data
IDs: Format: Raw Decoded Include TAF

Data at: 1957 UTC 25 Oct 2021

EDDE 251950Z 19008KT CAVOK 09/05 Q1019 NOSIG